Station History

Weather Underground - logo

Station Historical Data
 
Daily Summary for August 20, 2018 Units:  English    Metric   Both
« Previous Day
Next Day »
Daily Weekly Monthly Yearly Custom
  Current: High: Low: Average:
Temperature: 83.8 °F 83.8 °F 66 °F 70.6 °F
Dew Point: 60.8 °F 61.4 °F 54.8 °F 57.9 °F
Humidity: 46 % 74 % 45 % 65 %
Wind Speed: 1.2 mph 2.3 mph 0 mph 0.3 mph
Wind Gust: 0.3 mph 1.3 mph - -
Wind:SE - - SE
Pressure: 29.82 in 29.82 in 29.75 in -
Precipitation: 0 in      
Historical Graphs
 
 
Tabular Data for August 20, 2018
Time Temperature Dew Point Pressure Wind Wind Speed Wind Gust Humidity Rainfall Rate (Hourly)
00:04 77.6 °F 60.7 °F 29.75 in Calm     56 % 0 in
00:09 76.8 °F 60.4 °F 29.75 in Calm     57 % 0 in
00:14 75.8 °F 60.4 °F 29.76 in Calm     59 % 0 in
00:19 74.9 °F 60.5 °F 29.76 in Calm     61 % 0 in
00:24 74.3 °F 60 °F 29.76 in Calm     61 % 0 in
00:29 73.9 °F 60.1 °F 29.76 in Calm     62 % 0 in
00:34 73.5 °F 61 °F 29.76 in Calm     65 % 0 in
00:39 73.1 °F 60.2 °F 29.76 in Calm     64 % 0 in
00:44 72.7 °F 59.8 °F 29.76 in Calm     64 % 0 in
00:49 72.3 °F 59.4 °F 29.76 in Calm     64 % 0 in
00:54 72.1 °F 60.1 °F 29.76 in Calm     66 % 0 in
00:59 71.8 °F 60.2 °F 29.76 in Calm     67 % 0 in
01:04 71.6 °F 60.1 °F 29.75 in Calm     67 % 0 in
01:09 71.4 °F 59.9 °F 29.75 in Calm     67 % 0 in
01:14 71.3 °F 60.6 °F 29.75 in Calm     69 % 0 in
01:19 71.1 °F 60.4 °F 29.75 in Calm     69 % 0 in
01:24 70.9 °F 61.4 °F 29.75 in Calm     72 % 0 in
01:29 70.7 °F 60.8 °F 29.75 in Calm     71 % 0 in
01:34 70.5 °F 61 °F 29.75 in Calm     72 % 0 in
01:39 70.2 °F 61.1 °F 29.75 in Calm     73 % 0 in
01:44 69.8 °F 60.8 °F 29.75 in SE 1.2 mph   73 % 0 in
01:49 69.6 °F 60.6 °F 29.75 in Calm   0.1 mph 73 % 0 in
01:54 69.3 °F 60.3 °F 29.75 in Calm     73 % 0 in
01:59 69.2 °F 60.6 °F 29.75 in Calm     74 % 0 in
02:04 69 °F 60.4 °F 29.76 in Calm     74 % 0 in
02:09 68.8 °F 60.2 °F 29.76 in Calm     74 % 0 in
02:14 68.7 °F 60.1 °F 29.76 in Calm     74 % 0 in
02:19 68.7 °F 60.1 °F 29.76 in Calm   0.1 mph 74 % 0 in
02:24 68.7 °F 59.7 °F 29.76 in SE 1.2 mph   73 % 0 in
02:29 68.6 °F 59.6 °F 29.76 in Calm     73 % 0 in
02:34 68.5 °F 59.1 °F 29.76 in SE 1.2 mph   72 % 0 in
02:39 68.5 °F 58.3 °F 29.76 in Calm     70 % 0 in
02:44 68.5 °F 58.3 °F 29.76 in Calm     70 % 0 in
02:49 68.4 °F 58.2 °F 29.77 in Calm     70 % 0 in
02:54 68.4 °F 58.2 °F 29.77 in SE 1.2 mph   70 % 0 in
02:59 68.3 °F 58.1 °F 29.77 in Calm     70 % 0 in
03:04 68.3 °F 58.1 °F 29.77 in Calm     70 % 0 in
03:09 68.3 °F 58.1 °F 29.77 in Calm     70 % 0 in
03:14 68.3 °F 58.5 °F 29.77 in Calm     71 % 0 in
03:19 68.2 °F 58 °F 29.77 in Calm     70 % 0 in
03:24 68.1 °F 57.9 °F 29.77 in Calm     70 % 0 in
03:29 68.1 °F 58.3 °F 29.77 in Calm     71 % 0 in
03:34 68 °F 57.8 °F 29.77 in Calm     70 % 0 in
03:39 67.8 °F 57.7 °F 29.77 in Calm     70 % 0 in
03:44 67.7 °F 57.6 °F 29.77 in Calm     70 % 0 in
03:49 67.6 °F 57.5 °F 29.77 in Calm     70 % 0 in
03:54 67.6 °F 56.7 °F 29.77 in Calm     68 % 0 in
03:59 67.7 °F 56.8 °F 29.77 in Calm     68 % 0 in
04:04 67.6 °F 56.7 °F 29.77 in Calm     68 % 0 in
04:09 67.4 °F 56.5 °F 29.77 in Calm     68 % 0 in
04:14 67.3 °F 56.8 °F 29.77 in Calm     69 % 0 in
04:19 67.1 °F 57 °F 29.77 in Calm     70 % 0 in
04:24 66.9 °F 56.4 °F 29.77 in Calm     69 % 0 in
04:29 66.9 °F 56.4 °F 29.77 in Calm     69 % 0 in
04:34 66.8 °F 56.3 °F 29.77 in Calm     69 % 0 in
04:39 66.7 °F 56.6 °F 29.77 in Calm     70 % 0 in
04:44 66.6 °F 56.1 °F 29.77 in SE 1.2 mph   69 % 0 in
04:49 66.7 °F 55.8 °F 29.77 in Calm     68 % 0 in
04:54 66.9 °F 56 °F 29.77 in ESE 1.2 mph 0.1 mph 68 % 0 in
04:59 67 °F 56.1 °F 29.77 in ESE 1.2 mph   68 % 0 in
05:04 66.9 °F 56 °F 29.78 in ESE 1.2 mph 0.1 mph 68 % 0 in
05:09 66.8 °F 55.9 °F 29.78 in Calm     68 % 0 in
05:14 66.7 °F 55.8 °F 29.78 in Calm     68 % 0 in
05:19 66.7 °F 55.8 °F 29.78 in Calm     68 % 0 in
05:24 66.8 °F 55.5 °F 29.78 in ESE 1.2 mph   67 % 0 in
05:29 67 °F 55.7 °F 29.78 in ESE 1 mph   67 % 0 in
05:34 67 °F 55.7 °F 29.78 in Calm     67 % 0 in
05:39 66.9 °F 55.6 °F 29.79 in Calm     67 % 0 in
05:44 66.7 °F 55.8 °F 29.79 in Calm     68 % 0 in
05:49 66.4 °F 55.5 °F 29.78 in Calm     68 % 0 in
05:54 66.2 °F 55.3 °F 29.79 in Calm     68 % 0 in
05:59 66.1 °F 55.2 °F 29.79 in Calm     68 % 0 in
06:04 66.2 °F 55.3 °F 29.79 in Calm     68 % 0 in
06:09 66.2 °F 55.3 °F 29.79 in Calm     68 % 0 in
06:14 66.2 °F 55.3 °F 29.80 in Calm     68 % 0 in
06:19 66.2 °F 55.3 °F 29.80 in ESE 1.2 mph   68 % 0 in
06:24 66.1 °F 55.2 °F 29.80 in ESE 1.2 mph   68 % 0 in
06:29 66 °F 55.1 °F 29.80 in ESE 1.2 mph   68 % 0 in
06:34 66 °F 55.1 °F 29.80 in Calm     68 % 0 in
06:39 66 °F 55.1 °F 29.80 in Calm   0.1 mph 68 % 0 in
06:44 66 °F 55.1 °F 29.80 in Calm     68 % 0 in
06:49 66 °F 55.1 °F 29.81 in Calm   0.1 mph 68 % 0 in
06:54 66.1 °F 54.8 °F 29.81 in ESE 1.2 mph   67 % 0 in
06:59 66.4 °F 55.1 °F 29.81 in ESE 1.2 mph 0.1 mph 67 % 0 in
07:04 66.7 °F 55 °F 29.81 in ESE 1.2 mph   66 % 0 in
07:09 67 °F 54.8 °F 29.81 in Calm     65 % 0 in
07:14 67.3 °F 55.5 °F 29.81 in Calm     66 % 0 in
07:19 67.6 °F 55.8 °F 29.81 in Calm     66 % 0 in
07:24 67.9 °F 56.1 °F 29.81 in Calm     66 % 0 in
07:29 68.4 °F 56.2 °F 29.81 in Calm     65 % 0 in
07:34 69.1 °F 56.8 °F 29.82 in Calm     65 % 0 in
07:39 70.3 °F 57.1 °F 29.82 in SE 1.2 mph   63 % 0 in
07:44 71.7 °F 57.5 °F 29.81 in Calm     61 % 0 in
07:49 72.9 °F 57.7 °F 29.82 in Calm     59 % 0 in
07:54 73.5 °F 57.3 °F 29.82 in Calm   0.1 mph 57 % 0 in
07:59 73.9 °F 57.7 °F 29.81 in ESE 1.2 mph   57 % 0 in
08:04 74.5 °F 58.3 °F 29.81 in ESE 1.2 mph   57 % 0 in
08:09 75.4 °F 58.1 °F 29.82 in Calm     55 % 0 in
08:14 76.3 °F 58.9 °F 29.82 in Calm     55 % 0 in
08:19 77 °F 58.6 °F 29.82 in Calm     53 % 0 in
08:24 78.1 °F 59.6 °F 29.82 in Calm     53 % 0 in
08:29 79.2 °F 59.5 °F 29.82 in SSE 1.2 mph   51 % 0 in
08:34 79.4 °F 58.6 °F 29.82 in Calm     49 % 0 in
08:39 79.8 °F 58.9 °F 29.82 in Calm     49 % 0 in
08:44 80.4 °F 60.1 °F 29.82 in Calm     50 % 0 in
08:49 81 °F 60 °F 29.82 in East 1.2 mph 0.5 mph 49 % 0 in
08:54 81.2 °F 59.1 °F 29.82 in SE 2.3 mph 0.3 mph 47 % 0 in
08:59 81.7 °F 58.9 °F 29.82 in Calm     46 % 0 in
09:04 82.1 °F 59.3 °F 29.82 in SSE 1.2 mph   46 % 0 in
09:09 82.5 °F 59 °F 29.82 in ESE 2.3 mph 1.3 mph 45 % 0 in
09:14 82.5 °F 59.6 °F 29.82 in SE 1 mph 0.1 mph 46 % 0 in
09:19 82.9 °F 60 °F 29.82 in ESE 2.3 mph 0.5 mph 46 % 0 in
09:24 83.1 °F 60.2 °F 29.82 in SW 2 mph 1 mph 46 % 0 in
09:29 83.8 °F 60.8 °F 29.82 in SE 1.2 mph 0.3 mph 46 % 0 in
Park Place, Exeter, Tulare County, California, USA
Compliments of Weather Underground - 1.75 mb